sensor_id;sensor_type;location;lat;lon;timestamp;P1;durP1;ratioP1;P2;durP2;ratioP2
49998;SDS011;68071;45.062;7.356;2023-09-19T00:02:45;4.38;;;1.90;;
49998;SDS011;68071;45.062;7.356;2023-09-19T00:05:55;3.28;;;1.70;;
49998;SDS011;68071;45.062;7.356;2023-09-19T00:09:02;5.18;;;2.08;;
49998;SDS011;68071;45.062;7.356;2023-09-19T00:12:06;2.45;;;1.40;;
49998;SDS011;68071;45.062;7.356;2023-09-19T00:15:12;4.60;;;1.85;;
49998;SDS011;68071;45.062;7.356;2023-09-19T00:18:21;2.72;;;1.83;;
49998;SDS011;68071;45.062;7.356;2023-09-19T00:21:25;5.35;;;2.25;;
49998;SDS011;68071;45.062;7.356;2023-09-19T00:24:30;3.38;;;1.92;;
49998;SDS011;68071;45.062;7.356;2023-09-19T00:27:37;5.57;;;2.10;;
49998;SDS011;68071;45.062;7.356;2023-09-19T00:30:47;3.45;;;1.98;;
49998;SDS011;68071;45.062;7.356;2023-09-19T00:33:53;4.90;;;2.10;;
49998;SDS011;68071;45.062;7.356;2023-09-19T00:36:58;3.35;;;1.73;;
49998;SDS011;68071;45.062;7.356;2023-09-19T00:40:03;3.85;;;2.10;;
49998;SDS011;68071;45.062;7.356;2023-09-19T00:43:08;3.08;;;1.85;;
49998;SDS011;68071;45.062;7.356;2023-09-19T00:46:16;5.13;;;2.22;;
49998;SDS011;68071;45.062;7.356;2023-09-19T00:49:20;4.53;;;2.35;;
49998;SDS011;68071;45.062;7.356;2023-09-19T00:55:30;4.97;;;3.08;;
49998;SDS011;68071;45.062;7.356;2023-09-19T00:58:36;6.22;;;3.50;;
49998;SDS011;68071;45.062;7.356;2023-09-19T01:01:40;3.90;;;2.88;;
49998;SDS011;68071;45.062;7.356;2023-09-19T01:04:44;6.53;;;3.13;;
49998;SDS011;68071;45.062;7.356;2023-09-19T01:07:49;6.00;;;3.53;;
49998;SDS011;68071;45.062;7.356;2023-09-19T01:10:55;6.35;;;3.45;;
49998;SDS011;68071;45.062;7.356;2023-09-19T01:21:34;7.80;;;4.13;;
49998;SDS011;68071;45.062;7.356;2023-09-19T01:28:15;6.38;;;3.53;;
49998;SDS011;68071;45.062;7.356;2023-09-19T01:31:22;3.60;;;3.20;;
49998;SDS011;68071;45.062;7.356;2023-09-19T01:34:50;4.65;;;2.92;;
49998;SDS011;68071;45.062;7.356;2023-09-19T01:37:53;4.07;;;2.50;;
49998;SDS011;68071;45.062;7.356;2023-09-19T01:41:01;4.05;;;2.72;;
49998;SDS011;68071;45.062;7.356;2023-09-19T01:44:18;4.75;;;2.67;;
49998;SDS011;68071;45.062;7.356;2023-09-19T01:47:41;4.40;;;3.10;;
49998;SDS011;68071;45.062;7.356;2023-09-19T01:51:05;6.57;;;3.63;;
49998;SDS011;68071;45.062;7.356;2023-09-19T01:54:11;5.78;;;3.88;;
49998;SDS011;68071;45.062;7.356;2023-09-19T01:57:30;6.82;;;3.63;;
49998;SDS011;68071;45.062;7.356;2023-09-19T02:00:39;6.30;;;3.65;;
49998;SDS011;68071;45.062;7.356;2023-09-19T02:03:47;6.35;;;3.40;;
49998;SDS011;68071;45.062;7.356;2023-09-19T02:06:52;5.38;;;3.30;;
49998;SDS011;68071;45.062;7.356;2023-09-19T02:09:57;6.65;;;3.50;;
49998;SDS011;68071;45.062;7.356;2023-09-19T02:13:09;6.57;;;2.75;;
49998;SDS011;68071;45.062;7.356;2023-09-19T02:16:16;6.55;;;2.75;;
49998;SDS011;68071;45.062;7.356;2023-09-19T02:19:20;3.97;;;2.28;;
49998;SDS011;68071;45.062;7.356;2023-09-19T02:22:24;7.63;;;2.85;;
49998;SDS011;68071;45.062;7.356;2023-09-19T02:25:28;3.83;;;2.60;;
49998;SDS011;68071;45.062;7.356;2023-09-19T02:28:51;3.70;;;2.58;;
49998;SDS011;68071;45.062;7.356;2023-09-19T02:31:56;3.33;;;2.47;;
49998;SDS011;68071;45.062;7.356;2023-09-19T02:35:00;3.50;;;2.35;;
49998;SDS011;68071;45.062;7.356;2023-09-19T02:38:06;3.65;;;2.17;;
49998;SDS011;68071;45.062;7.356;2023-09-19T02:41:15;7.00;;;2.25;;
49998;SDS011;68071;45.062;7.356;2023-09-19T02:44:19;4.00;;;2.20;;
49998;SDS011;68071;45.062;7.356;2023-09-19T02:47:23;4.72;;;2.40;;
49998;SDS011;68071;45.062;7.356;2023-09-19T02:50:27;3.45;;;2.10;;
49998;SDS011;68071;45.062;7.356;2023-09-19T02:53:31;4.82;;;2.13;;
49998;SDS011;68071;45.062;7.356;2023-09-19T02:56:35;3.90;;;2.25;;
49998;SDS011;68071;45.062;7.356;2023-09-19T02:59:40;3.85;;;2.00;;
49998;SDS011;68071;45.062;7.356;2023-09-19T03:02:46;3.95;;;2.30;;
49998;SDS011;68071;45.062;7.356;2023-09-19T03:05:54;5.20;;;2.20;;
49998;SDS011;68071;45.062;7.356;2023-09-19T03:08:59;5.50;;;3.10;;
49998;SDS011;68071;45.062;7.356;2023-09-19T03:12:04;5.13;;;2.95;;
49998;SDS011;68071;45.062;7.356;2023-09-19T03:15:10;4.97;;;2.90;;
49998;SDS011;68071;45.062;7.356;2023-09-19T03:18:15;4.93;;;2.60;;
49998;SDS011;68071;45.062;7.356;2023-09-19T03:21:19;4.63;;;2.67;;
49998;SDS011;68071;45.062;7.356;2023-09-19T03:24:25;3.97;;;2.42;;
49998;SDS011;68071;45.062;7.356;2023-09-19T03:27:30;6.35;;;3.15;;
49998;SDS011;68071;45.062;7.356;2023-09-19T03:30:34;5.70;;;2.90;;
49998;SDS011;68071;45.062;7.356;2023-09-19T03:33:40;3.30;;;2.25;;
49998;SDS011;68071;45.062;7.356;2023-09-19T03:36:44;2.90;;;2.05;;
49998;SDS011;68071;45.062;7.356;2023-09-19T03:39:48;6.53;;;2.15;;
49998;SDS011;68071;45.062;7.356;2023-09-19T03:42:52;4.22;;;2.10;;
49998;SDS011;68071;45.062;7.356;2023-09-19T03:45:56;3.40;;;2.70;;
49998;SDS011;68071;45.062;7.356;2023-09-19T03:49:01;6.30;;;4.05;;
49998;SDS011;68071;45.062;7.356;2023-09-19T03:52:06;4.55;;;2.92;;
49998;SDS011;68071;45.062;7.356;2023-09-19T03:55:10;6.75;;;3.95;;
49998;SDS011;68071;45.062;7.356;2023-09-19T03:58:15;4.63;;;2.60;;
49998;SDS011;68071;45.062;7.356;2023-09-19T04:01:19;5.00;;;2.20;;
49998;SDS011;68071;45.062;7.356;2023-09-19T04:04:25;4.90;;;2.97;;
49998;SDS011;68071;45.062;7.356;2023-09-19T04:07:29;7.60;;;3.47;;
49998;SDS011;68071;45.062;7.356;2023-09-19T04:10:34;8.43;;;4.17;;
49998;SDS011;68071;45.062;7.356;2023-09-19T04:13:38;4.88;;;3.72;;
49998;SDS011;68071;45.062;7.356;2023-09-19T04:16:42;6.10;;;3.65;;
49998;SDS011;68071;45.062;7.356;2023-09-19T04:19:46;4.05;;;3.00;;
49998;SDS011;68071;45.062;7.356;2023-09-19T04:22:50;6.55;;;3.40;;
49998;SDS011;68071;45.062;7.356;2023-09-19T04:25:55;5.53;;;3.30;;
49998;SDS011;68071;45.062;7.356;2023-09-19T04:28:59;5.22;;;2.90;;
49998;SDS011;68071;45.062;7.356;2023-09-19T04:32:04;4.10;;;2.50;;
49998;SDS011;68071;45.062;7.356;2023-09-19T04:35:09;5.27;;;3.47;;
49998;SDS011;68071;45.062;7.356;2023-09-19T04:38:14;4.25;;;3.60;;
49998;SDS011;68071;45.062;7.356;2023-09-19T04:41:18;4.55;;;4.05;;
49998;SDS011;68071;45.062;7.356;2023-09-19T04:44:22;5.40;;;3.03;;
49998;SDS011;68071;45.062;7.356;2023-09-19T04:47:26;4.88;;;3.40;;
49998;SDS011;68071;45.062;7.356;2023-09-19T04:50:30;5.43;;;3.47;;
49998;SDS011;68071;45.062;7.356;2023-09-19T04:53:34;4.53;;;2.88;;
49998;SDS011;68071;45.062;7.356;2023-09-19T04:56:38;5.97;;;3.40;;
49998;SDS011;68071;45.062;7.356;2023-09-19T04:59:43;4.32;;;2.90;;
49998;SDS011;68071;45.062;7.356;2023-09-19T05:02:49;6.47;;;3.22;;
49998;SDS011;68071;45.062;7.356;2023-09-19T05:05:55;6.50;;;3.40;;
49998;SDS011;68071;45.062;7.356;2023-09-19T05:08:59;4.53;;;3.00;;
49998;SDS011;68071;45.062;7.356;2023-09-19T05:12:03;5.47;;;3.40;;
49998;SDS011;68071;45.062;7.356;2023-09-19T05:15:08;7.75;;;3.05;;
49998;SDS011;68071;45.062;7.356;2023-09-19T05:18:12;6.25;;;4.43;;
49998;SDS011;68071;45.062;7.356;2023-09-19T05:21:16;7.53;;;4.03;;
49998;SDS011;68071;45.062;7.356;2023-09-19T05:24:21;4.60;;;3.28;;
49998;SDS011;68071;45.062;7.356;2023-09-19T05:27:27;4.93;;;3.90;;
49998;SDS011;68071;45.062;7.356;2023-09-19T05:30:31;5.65;;;3.35;;
49998;SDS011;68071;45.062;7.356;2023-09-19T05:33:35;6.35;;;3.47;;
49998;SDS011;68071;45.062;7.356;2023-09-19T05:36:39;7.82;;;4.63;;
49998;SDS011;68071;45.062;7.356;2023-09-19T05:39:43;8.00;;;4.60;;
49998;SDS011;68071;45.062;7.356;2023-09-19T05:42:47;8.02;;;6.47;;
49998;SDS011;68071;45.062;7.356;2023-09-19T05:45:51;9.32;;;6.28;;
49998;SDS011;68071;45.062;7.356;2023-09-19T05:48:55;6.38;;;5.43;;
49998;SDS011;68071;45.062;7.356;2023-09-19T05:52:02;7.55;;;6.13;;
49998;SDS011;68071;45.062;7.356;2023-09-19T05:55:06;7.82;;;5.13;;
49998;SDS011;68071;45.062;7.356;2023-09-19T05:58:11;7.88;;;4.72;;
49998;SDS011;68071;45.062;7.356;2023-09-19T06:01:18;8.57;;;5.47;;
49998;SDS011;68071;45.062;7.356;2023-09-19T06:04:22;8.15;;;6.07;;
49998;SDS011;68071;45.062;7.356;2023-09-19T06:07:26;8.27;;;6.45;;
49998;SDS011;68071;45.062;7.356;2023-09-19T06:10:39;8.05;;;5.78;;
49998;SDS011;68071;45.062;7.356;2023-09-19T06:13:43;9.15;;;5.25;;
49998;SDS011;68071;45.062;7.356;2023-09-19T06:16:50;10.27;;;6.28;;
49998;SDS011;68071;45.062;7.356;2023-09-19T06:19:54;9.70;;;6.43;;
49998;SDS011;68071;45.062;7.356;2023-09-19T06:22:59;8.90;;;5.82;;
49998;SDS011;68071;45.062;7.356;2023-09-19T06:26:05;9.38;;;8.40;;
49998;SDS011;68071;45.062;7.356;2023-09-19T06:29:10;10.32;;;8.10;;
49998;SDS011;68071;45.062;7.356;2023-09-19T06:32:14;11.88;;;8.48;;
49998;SDS011;68071;45.062;7.356;2023-09-19T06:35:18;8.70;;;5.40;;
49998;SDS011;68071;45.062;7.356;2023-09-19T06:38:22;10.80;;;7.25;;
49998;SDS011;68071;45.062;7.356;2023-09-19T06:41:26;11.67;;;9.37;;
49998;SDS011;68071;45.062;7.356;2023-09-19T06:44:30;9.45;;;6.90;;
49998;SDS011;68071;45.062;7.356;2023-09-19T06:47:35;11.20;;;9.68;;
49998;SDS011;68071;45.062;7.356;2023-09-19T06:50:39;10.60;;;9.40;;
49998;SDS011;68071;45.062;7.356;2023-09-19T06:53:44;8.75;;;7.68;;
49998;SDS011;68071;45.062;7.356;2023-09-19T06:56:48;8.13;;;7.03;;
49998;SDS011;68071;45.062;7.356;2023-09-19T06:59:52;11.00;;;8.93;;
49998;SDS011;68071;45.062;7.356;2023-09-19T07:03:03;9.10;;;7.88;;
49998;SDS011;68071;45.062;7.356;2023-09-19T07:06:15;7.75;;;6.93;;
49998;SDS011;68071;45.062;7.356;2023-09-19T07:09:18;7.47;;;6.07;;
49998;SDS011;68071;45.062;7.356;2023-09-19T07:12:23;6.43;;;5.20;;
49998;SDS011;68071;45.062;7.356;2023-09-19T07:15:27;9.02;;;6.15;;
49998;SDS011;68071;45.062;7.356;2023-09-19T07:18:33;9.80;;;4.85;;
49998;SDS011;68071;45.062;7.356;2023-09-19T07:21:37;6.07;;;4.55;;
49998;SDS011;68071;45.062;7.356;2023-09-19T07:24:42;6.20;;;4.00;;
49998;SDS011;68071;45.062;7.356;2023-09-19T07:27:46;5.47;;;4.28;;
49998;SDS011;68071;45.062;7.356;2023-09-19T07:30:50;7.25;;;4.50;;
49998;SDS011;68071;45.062;7.356;2023-09-19T07:33:54;5.97;;;4.20;;
49998;SDS011;68071;45.062;7.356;2023-09-19T07:36:58;5.35;;;3.97;;
49998;SDS011;68071;45.062;7.356;2023-09-19T07:40:02;6.32;;;4.05;;
49998;SDS011;68071;45.062;7.356;2023-09-19T07:43:25;7.15;;;3.88;;
49998;SDS011;68071;45.062;7.356;2023-09-19T07:46:29;6.40;;;4.07;;
49998;SDS011;68071;45.062;7.356;2023-09-19T07:49:34;5.97;;;3.80;;
49998;SDS011;68071;45.062;7.356;2023-09-19T07:52:38;5.40;;;3.70;;
49998;SDS011;68071;45.062;7.356;2023-09-19T07:55:46;5.57;;;3.45;;
49998;SDS011;68071;45.062;7.356;2023-09-19T07:58:52;5.40;;;3.92;;
49998;SDS011;68071;45.062;7.356;2023-09-19T08:01:56;4.82;;;3.70;;
49998;SDS011;68071;45.062;7.356;2023-09-19T08:05:00;3.67;;;3.00;;
49998;SDS011;68071;45.062;7.356;2023-09-19T08:08:05;3.78;;;3.20;;
49998;SDS011;68071;45.062;7.356;2023-09-19T08:11:11;5.00;;;3.72;;
49998;SDS011;68071;45.062;7.356;2023-09-19T08:14:16;5.95;;;3.80;;
49998;SDS011;68071;45.062;7.356;2023-09-19T08:17:20;7.10;;;4.00;;
49998;SDS011;68071;45.062;7.356;2023-09-19T08:20:26;7.15;;;3.63;;
49998;SDS011;68071;45.062;7.356;2023-09-19T08:23:30;7.33;;;3.87;;
49998;SDS011;68071;45.062;7.356;2023-09-19T08:29:41;3.95;;;3.42;;
49998;SDS011;68071;45.062;7.356;2023-09-19T08:32:46;5.77;;;2.83;;
49998;SDS011;68071;45.062;7.356;2023-09-19T08:38:55;4.93;;;2.72;;
49998;SDS011;68071;45.062;7.356;2023-09-19T08:42:00;3.63;;;2.88;;
49998;SDS011;68071;45.062;7.356;2023-09-19T08:45:05;7.97;;;3.08;;
49998;SDS011;68071;45.062;7.356;2023-09-19T08:51:21;3.03;;;2.70;;
49998;SDS011;68071;45.062;7.356;2023-09-19T08:54:32;2.90;;;2.40;;
49998;SDS011;68071;45.062;7.356;2023-09-19T08:57:42;3.80;;;2.33;;
49998;SDS011;68071;45.062;7.356;2023-09-19T09:00:52;5.72;;;2.83;;
49998;SDS011;68071;45.062;7.356;2023-09-19T09:07:01;3.95;;;2.55;;
49998;SDS011;68071;45.062;7.356;2023-09-19T09:10:07;2.70;;;1.90;;
49998;SDS011;68071;45.062;7.356;2023-09-19T09:13:12;3.00;;;2.40;;
49998;SDS011;68071;45.062;7.356;2023-09-19T09:16:17;4.65;;;2.50;;
49998;SDS011;68071;45.062;7.356;2023-09-19T09:19:22;3.95;;;3.10;;
49998;SDS011;68071;45.062;7.356;2023-09-19T09:22:28;4.15;;;3.13;;
49998;SDS011;68071;45.062;7.356;2023-09-19T09:28:59;4.25;;;2.40;;
49998;SDS011;68071;45.062;7.356;2023-09-19T09:32:15;4.95;;;3.47;;
49998;SDS011;68071;45.062;7.356;2023-09-19T09:35:29;5.00;;;2.90;;
49998;SDS011;68071;45.062;7.356;2023-09-19T09:38:44;5.50;;;2.50;;
49998;SDS011;68071;45.062;7.356;2023-09-19T09:41:50;3.67;;;2.58;;
49998;SDS011;68071;45.062;7.356;2023-09-19T09:48:37;4.18;;;2.00;;
49998;SDS011;68071;45.062;7.356;2023-09-19T09:51:43;3.92;;;2.53;;
49998;SDS011;68071;45.062;7.356;2023-09-19T09:55:01;3.50;;;2.10;;
49998;SDS011;68071;45.062;7.356;2023-09-19T09:58:17;4.07;;;2.05;;
49998;SDS011;68071;45.062;7.356;2023-09-19T10:01:22;3.15;;;1.88;;
49998;SDS011;68071;45.062;7.356;2023-09-19T10:04:30;3.15;;;2.28;;
49998;SDS011;68071;45.062;7.356;2023-09-19T10:07:40;4.32;;;2.10;;
49998;SDS011;68071;45.062;7.356;2023-09-19T10:10:49;2.45;;;1.67;;
49998;SDS011;68071;45.062;7.356;2023-09-19T10:14:07;2.67;;;1.90;;
49998;SDS011;68071;45.062;7.356;2023-09-19T10:17:12;2.65;;;1.60;;
49998;SDS011;68071;45.062;7.356;2023-09-19T10:20:23;2.97;;;1.83;;
49998;SDS011;68071;45.062;7.356;2023-09-19T10:23:46;2.88;;;2.33;;
49998;SDS011;68071;45.062;7.356;2023-09-19T10:26:51;3.72;;;2.42;;
49998;SDS011;68071;45.062;7.356;2023-09-19T10:29:58;2.65;;;1.92;;
49998;SDS011;68071;45.062;7.356;2023-09-19T10:33:04;5.82;;;2.00;;
49998;SDS011;68071;45.062;7.356;2023-09-19T10:36:11;4.25;;;2.50;;
49998;SDS011;68071;45.062;7.356;2023-09-19T10:39:16;4.25;;;1.80;;
49998;SDS011;68071;45.062;7.356;2023-09-19T10:42:23;2.50;;;1.65;;
49998;SDS011;68071;45.062;7.356;2023-09-19T10:45:33;2.67;;;1.65;;
49998;SDS011;68071;45.062;7.356;2023-09-19T10:48:38;3.92;;;1.70;;
49998;SDS011;68071;45.062;7.356;2023-09-19T10:54:52;3.53;;;2.30;;
49998;SDS011;68071;45.062;7.356;2023-09-19T10:58:01;4.65;;;2.10;;
49998;SDS011;68071;45.062;7.356;2023-09-19T11:01:13;4.40;;;2.45;;
49998;SDS011;68071;45.062;7.356;2023-09-19T11:08:10;3.63;;;2.10;;
49998;SDS011;68071;45.062;7.356;2023-09-19T11:11:17;2.40;;;1.92;;
49998;SDS011;68071;45.062;7.356;2023-09-19T11:14:44;3.60;;;1.85;;
49998;SDS011;68071;45.062;7.356;2023-09-19T11:17:48;2.40;;;2.20;;
49998;SDS011;68071;45.062;7.356;2023-09-19T11:21:23;2.85;;;1.73;;
49998;SDS011;68071;45.062;7.356;2023-09-19T11:24:35;2.65;;;1.80;;
49998;SDS011;68071;45.062;7.356;2023-09-19T11:28:06;3.97;;;1.83;;
49998;SDS011;68071;45.062;7.356;2023-09-19T11:31:40;3.20;;;1.60;;
49998;SDS011;68071;45.062;7.356;2023-09-19T11:34:48;1.95;;;1.67;;
49998;SDS011;68071;45.062;7.356;2023-09-19T11:47:33;3.35;;;1.70;;
49998;SDS011;68071;45.062;7.356;2023-09-19T11:50:39;2.50;;;1.27;;
49998;SDS011;68071;45.062;7.356;2023-09-19T11:53:48;2.15;;;1.40;;
49998;SDS011;68071;45.062;7.356;2023-09-19T11:56:55;2.22;;;1.63;;
49998;SDS011;68071;45.062;7.356;2023-09-19T11:59:59;2.08;;;1.10;;
49998;SDS011;68071;45.062;7.356;2023-09-19T12:03:05;3.13;;;1.10;;
49998;SDS011;68071;45.062;7.356;2023-09-19T12:06:13;1.98;;;1.02;;
49998;SDS011;68071;45.062;7.356;2023-09-19T12:09:19;3.35;;;1.48;;
49998;SDS011;68071;45.062;7.356;2023-09-19T12:12:24;2.70;;;1.30;;
49998;SDS011;68071;45.062;7.356;2023-09-19T12:15:33;2.47;;;1.63;;
49998;SDS011;68071;45.062;7.356;2023-09-19T12:18:42;3.45;;;1.95;;
49998;SDS011;68071;45.062;7.356;2023-09-19T12:21:54;3.08;;;2.40;;
49998;SDS011;68071;45.062;7.356;2023-09-19T12:25:06;4.28;;;2.45;;
49998;SDS011;68071;45.062;7.356;2023-09-19T12:28:11;5.10;;;3.28;;
49998;SDS011;68071;45.062;7.356;2023-09-19T12:31:15;3.92;;;2.50;;
49998;SDS011;68071;45.062;7.356;2023-09-19T12:34:26;3.42;;;2.83;;
49998;SDS011;68071;45.062;7.356;2023-09-19T12:37:31;4.63;;;2.83;;
49998;SDS011;68071;45.062;7.356;2023-09-19T12:40:37;3.63;;;2.55;;
49998;SDS011;68071;45.062;7.356;2023-09-19T12:43:46;3.95;;;2.97;;
49998;SDS011;68071;45.062;7.356;2023-09-19T12:46:50;6.65;;;3.25;;
49998;SDS011;68071;45.062;7.356;2023-09-19T12:50:05;3.67;;;2.97;;
49998;SDS011;68071;45.062;7.356;2023-09-19T12:53:14;4.22;;;2.92;;
49998;SDS011;68071;45.062;7.356;2023-09-19T12:56:29;3.22;;;2.78;;
49998;SDS011;68071;45.062;7.356;2023-09-19T12:59:53;4.10;;;2.80;;
49998;SDS011;68071;45.062;7.356;2023-09-19T13:06:34;4.60;;;3.10;;
49998;SDS011;68071;45.062;7.356;2023-09-19T13:10:01;3.25;;;2.45;;
49998;SDS011;68071;45.062;7.356;2023-09-19T13:13:23;4.10;;;2.47;;
49998;SDS011;68071;45.062;7.356;2023-09-19T13:16:32;3.53;;;2.70;;
49998;SDS011;68071;45.062;7.356;2023-09-19T13:19:43;3.85;;;2.72;;
49998;SDS011;68071;45.062;7.356;2023-09-19T13:22:56;3.67;;;2.38;;
49998;SDS011;68071;45.062;7.356;2023-09-19T13:26:14;3.13;;;2.15;;
49998;SDS011;68071;45.062;7.356;2023-09-19T13:29:17;3.83;;;2.63;;
49998;SDS011;68071;45.062;7.356;2023-09-19T13:32:22;3.23;;;2.47;;
49998;SDS011;68071;45.062;7.356;2023-09-19T13:35:26;3.57;;;2.60;;
49998;SDS011;68071;45.062;7.356;2023-09-19T13:38:30;3.33;;;2.10;;
49998;SDS011;68071;45.062;7.356;2023-09-19T13:41:34;4.22;;;2.53;;
49998;SDS011;68071;45.062;7.356;2023-09-19T13:44:40;3.58;;;2.30;;
49998;SDS011;68071;45.062;7.356;2023-09-19T13:47:44;4.18;;;2.70;;
49998;SDS011;68071;45.062;7.356;2023-09-19T13:50:48;3.03;;;2.25;;
49998;SDS011;68071;45.062;7.356;2023-09-19T13:53:53;4.13;;;2.55;;
49998;SDS011;68071;45.062;7.356;2023-09-19T13:56:57;4.70;;;2.65;;
49998;SDS011;68071;45.062;7.356;2023-09-19T14:00:01;3.65;;;2.35;;
49998;SDS011;68071;45.062;7.356;2023-09-19T14:03:15;6.23;;;3.10;;
49998;SDS011;68071;45.062;7.356;2023-09-19T14:06:20;2.92;;;2.22;;
49998;SDS011;68071;45.062;7.356;2023-09-19T14:09:24;2.90;;;2.20;;
49998;SDS011;68071;45.062;7.356;2023-09-19T14:12:28;4.93;;;2.58;;
49998;SDS011;68071;45.062;7.356;2023-09-19T14:15:36;3.13;;;2.40;;
49998;SDS011;68071;45.062;7.356;2023-09-19T14:18:42;3.00;;;2.30;;
49998;SDS011;68071;45.062;7.356;2023-09-19T14:21:46;3.47;;;2.40;;
49998;SDS011;68071;45.062;7.356;2023-09-19T14:24:50;3.70;;;2.28;;
49998;SDS011;68071;45.062;7.356;2023-09-19T14:27:55;3.70;;;2.40;;
49998;SDS011;68071;45.062;7.356;2023-09-19T14:31:06;4.65;;;2.47;;
49998;SDS011;68071;45.062;7.356;2023-09-19T14:34:11;3.45;;;2.42;;
49998;SDS011;68071;45.062;7.356;2023-09-19T14:37:15;3.92;;;2.95;;
49998;SDS011;68071;45.062;7.356;2023-09-19T14:40:21;5.45;;;2.35;;
49998;SDS011;68071;45.062;7.356;2023-09-19T14:43:26;3.60;;;2.65;;
49998;SDS011;68071;45.062;7.356;2023-09-19T14:46:32;3.63;;;2.03;;
49998;SDS011;68071;45.062;7.356;2023-09-19T14:49:36;4.97;;;2.10;;
49998;SDS011;68071;45.062;7.356;2023-09-19T14:52:43;3.42;;;2.25;;
49998;SDS011;68071;45.062;7.356;2023-09-19T14:55:47;2.17;;;1.85;;
49998;SDS011;68071;45.062;7.356;2023-09-19T14:58:55;2.97;;;1.83;;
49998;SDS011;68071;45.062;7.356;2023-09-19T15:01:59;3.88;;;1.90;;
49998;SDS011;68071;45.062;7.356;2023-09-19T15:05:03;4.13;;;2.00;;
49998;SDS011;68071;45.062;7.356;2023-09-19T15:08:10;2.53;;;1.80;;
49998;SDS011;68071;45.062;7.356;2023-09-19T15:11:14;2.70;;;2.00;;
49998;SDS011;68071;45.062;7.356;2023-09-19T15:14:22;2.65;;;1.40;;
49998;SDS011;68071;45.062;7.356;2023-09-19T15:17:28;3.60;;;2.00;;
49998;SDS011;68071;45.062;7.356;2023-09-19T15:20:32;3.42;;;1.80;;
49998;SDS011;68071;45.062;7.356;2023-09-19T15:23:36;2.53;;;1.90;;
49998;SDS011;68071;45.062;7.356;2023-09-19T15:26:41;3.28;;;1.90;;
49998;SDS011;68071;45.062;7.356;2023-09-19T15:29:47;2.55;;;2.05;;
49998;SDS011;68071;45.062;7.356;2023-09-19T15:32:51;3.38;;;1.92;;
49998;SDS011;68071;45.062;7.356;2023-09-19T15:36:02;3.07;;;2.00;;
49998;SDS011;68071;45.062;7.356;2023-09-19T15:39:13;3.75;;;2.45;;
49998;SDS011;68071;45.062;7.356;2023-09-19T15:45:23;4.68;;;2.63;;
49998;SDS011;68071;45.062;7.356;2023-09-19T15:48:29;3.38;;;2.45;;
49998;SDS011;68071;45.062;7.356;2023-09-19T15:51:34;5.57;;;2.53;;
49998;SDS011;68071;45.062;7.356;2023-09-19T15:54:42;5.75;;;3.03;;
49998;SDS011;68071;45.062;7.356;2023-09-19T15:57:48;4.40;;;3.40;;
49998;SDS011;68071;45.062;7.356;2023-09-19T16:00:52;5.07;;;3.00;;
49998;SDS011;68071;45.062;7.356;2023-09-19T16:03:56;9.18;;;4.78;;
49998;SDS011;68071;45.062;7.356;2023-09-19T16:07:00;7.05;;;5.35;;
49998;SDS011;68071;45.062;7.356;2023-09-19T16:10:05;9.48;;;6.38;;
49998;SDS011;68071;45.062;7.356;2023-09-19T16:13:11;8.18;;;4.65;;
49998;SDS011;68071;45.062;7.356;2023-09-19T16:19:23;6.85;;;4.63;;
49998;SDS011;68071;45.062;7.356;2023-09-19T16:22:27;7.13;;;4.90;;
49998;SDS011;68071;45.062;7.356;2023-09-19T16:25:31;7.20;;;5.55;;
49998;SDS011;68071;45.062;7.356;2023-09-19T16:28:36;10.65;;;6.03;;
49998;SDS011;68071;45.062;7.356;2023-09-19T16:31:40;4.53;;;3.45;;
49998;SDS011;68071;45.062;7.356;2023-09-19T16:34:44;5.07;;;3.65;;
49998;SDS011;68071;45.062;7.356;2023-09-19T16:37:48;5.82;;;3.88;;
49998;SDS011;68071;45.062;7.356;2023-09-19T16:40:53;5.20;;;3.80;;
49998;SDS011;68071;45.062;7.356;2023-09-19T16:44:03;4.32;;;3.55;;
49998;SDS011;68071;45.062;7.356;2023-09-19T16:47:11;5.85;;;3.92;;
49998;SDS011;68071;45.062;7.356;2023-09-19T16:50:15;7.53;;;4.63;;
49998;SDS011;68071;45.062;7.356;2023-09-19T16:53:19;4.97;;;4.10;;
49998;SDS011;68071;45.062;7.356;2023-09-19T16:56:24;5.78;;;3.78;;
49998;SDS011;68071;45.062;7.356;2023-09-19T16:59:28;5.17;;;3.90;;
49998;SDS011;68071;45.062;7.356;2023-09-19T17:02:32;5.38;;;3.67;;
49998;SDS011;68071;45.062;7.356;2023-09-19T17:05:36;4.72;;;3.42;;
49998;SDS011;68071;45.062;7.356;2023-09-19T17:08:43;4.25;;;3.47;;
49998;SDS011;68071;45.062;7.356;2023-09-19T17:11:50;4.93;;;3.90;;
49998;SDS011;68071;45.062;7.356;2023-09-19T17:14:54;5.65;;;3.50;;
49998;SDS011;68071;45.062;7.356;2023-09-19T17:17:59;6.82;;;4.05;;
49998;SDS011;68071;45.062;7.356;2023-09-19T17:21:04;6.43;;;4.00;;
49998;SDS011;68071;45.062;7.356;2023-09-19T17:24:14;4.40;;;3.70;;
49998;SDS011;68071;45.062;7.356;2023-09-19T17:27:18;5.63;;;3.30;;
49998;SDS011;68071;45.062;7.356;2023-09-19T17:30:22;4.38;;;3.60;;
49998;SDS011;68071;45.062;7.356;2023-09-19T17:33:27;5.32;;;3.55;;
49998;SDS011;68071;45.062;7.356;2023-09-19T17:36:32;4.45;;;3.03;;
49998;SDS011;68071;45.062;7.356;2023-09-19T17:39:36;3.63;;;2.93;;
49998;SDS011;68071;45.062;7.356;2023-09-19T17:42:40;3.28;;;2.90;;
49998;SDS011;68071;45.062;7.356;2023-09-19T17:45:45;3.67;;;2.83;;
49998;SDS011;68071;45.062;7.356;2023-09-19T17:48:50;4.83;;;2.80;;
49998;SDS011;68071;45.062;7.356;2023-09-19T17:51:56;4.03;;;2.92;;
49998;SDS011;68071;45.062;7.356;2023-09-19T17:55:01;4.40;;;3.20;;
49998;SDS011;68071;45.062;7.356;2023-09-19T17:58:05;5.35;;;3.10;;
49998;SDS011;68071;45.062;7.356;2023-09-19T18:01:13;3.90;;;3.00;;
49998;SDS011;68071;45.062;7.356;2023-09-19T18:04:19;3.65;;;2.83;;
49998;SDS011;68071;45.062;7.356;2023-09-19T18:07:23;4.38;;;3.08;;
49998;SDS011;68071;45.062;7.356;2023-09-19T18:10:27;5.15;;;2.83;;
49998;SDS011;68071;45.062;7.356;2023-09-19T18:13:32;4.05;;;3.15;;
49998;SDS011;68071;45.062;7.356;2023-09-19T18:16:36;6.05;;;2.95;;
49998;SDS011;68071;45.062;7.356;2023-09-19T18:19:41;5.05;;;3.00;;
49998;SDS011;68071;45.062;7.356;2023-09-19T18:22:44;5.10;;;3.08;;
49998;SDS011;68071;45.062;7.356;2023-09-19T18:25:48;5.07;;;3.47;;
49998;SDS011;68071;45.062;7.356;2023-09-19T18:28:52;4.90;;;3.03;;
49998;SDS011;68071;45.062;7.356;2023-09-19T18:31:57;6.22;;;4.53;;
49998;SDS011;68071;45.062;7.356;2023-09-19T18:35:02;7.07;;;4.97;;
49998;SDS011;68071;45.062;7.356;2023-09-19T18:38:07;6.45;;;4.25;;
49998;SDS011;68071;45.062;7.356;2023-09-19T18:41:12;6.15;;;4.65;;
49998;SDS011;68071;45.062;7.356;2023-09-19T18:44:20;8.07;;;4.88;;
49998;SDS011;68071;45.062;7.356;2023-09-19T18:47:24;6.10;;;4.50;;
49998;SDS011;68071;45.062;7.356;2023-09-19T18:50:32;7.03;;;4.82;;
49998;SDS011;68071;45.062;7.356;2023-09-19T18:53:37;7.32;;;4.50;;
49998;SDS011;68071;45.062;7.356;2023-09-19T18:56:42;6.15;;;5.00;;
49998;SDS011;68071;45.062;7.356;2023-09-19T18:59:47;8.35;;;4.75;;
49998;SDS011;68071;45.062;7.356;2023-09-19T19:02:52;7.30;;;4.72;;
49998;SDS011;68071;45.062;7.356;2023-09-19T19:05:57;6.68;;;4.07;;
49998;SDS011;68071;45.062;7.356;2023-09-19T19:09:01;5.90;;;4.18;;
49998;SDS011;68071;45.062;7.356;2023-09-19T19:12:06;5.97;;;4.18;;
49998;SDS011;68071;45.062;7.356;2023-09-19T19:15:10;5.97;;;4.60;;
49998;SDS011;68071;45.062;7.356;2023-09-19T19:18:15;7.18;;;4.10;;
49998;SDS011;68071;45.062;7.356;2023-09-19T19:21:19;4.80;;;3.83;;
49998;SDS011;68071;45.062;7.356;2023-09-19T19:24:23;6.97;;;3.67;;
49998;SDS011;68071;45.062;7.356;2023-09-19T19:27:27;5.43;;;3.58;;
49998;SDS011;68071;45.062;7.356;2023-09-19T19:30:33;5.57;;;3.45;;
49998;SDS011;68071;45.062;7.356;2023-09-19T19:33:40;4.78;;;3.30;;
49998;SDS011;68071;45.062;7.356;2023-09-19T19:36:44;5.30;;;3.55;;
49998;SDS011;68071;45.062;7.356;2023-09-19T19:39:49;4.53;;;3.58;;
49998;SDS011;68071;45.062;7.356;2023-09-19T19:42:54;4.72;;;3.38;;
49998;SDS011;68071;45.062;7.356;2023-09-19T19:46:00;4.22;;;3.38;;